Time;durP1;ratioP1;P1;durP2;ratioP2;P2;SDS_P1;SDS_P2;PMS_P1;PMS_P2;Temp;Humidity;BMP_temperature;BMP_pressure;BME280_temperature;BME280_humidity;BME280_pressure;Samples;Min_cycle;Max_cycle;Signal;HPM_P1;HPM_P2
2023/07/24 00:01:07;;;;;;;6.97;6.25;;;24.10;52.00;;;;;;4991343;28;20241;-79
2023/07/24 00:03:34;;;;;;;7.43;6.55;;;24.10;52.10;;;;;;4974926;28;20257;-79
2023/07/24 00:06:02;;;;;;;7.03;6.32;;;24.10;52.00;;;;;;4974769;28;20214;-79
2023/07/24 00:08:30;;;;;;;7.90;6.60;;;24.10;52.00;;;;;;4974947;28;20715;-79
2023/07/24 00:10:58;;;;;;;7.47;6.22;;;24.10;52.10;;;;;;4974981;28;20221;-79
2023/07/24 00:13:25;;;;;;;7.82;6.47;;;24.10;52.00;;;;;;4959273;28;20198;-79
2023/07/24 00:15:52;;;;;;;7.75;6.20;;;24.10;52.00;;;;;;4974867;28;20198;-79
2023/07/24 00:18:19;;;;;;;6.97;6.20;;;24.10;52.10;;;;;;4975261;28;20210;-79
2023/07/24 00:20:47;;;;;;;8.15;6.80;;;24.00;52.10;;;;;;4975862;28;20701;-79
2023/07/24 00:23:14;;;;;;;8.13;6.70;;;24.10;52.20;;;;;;4991561;28;20221;-79
2023/07/24 00:25:42;;;;;;;7.57;6.45;;;24.00;52.10;;;;;;4974861;28;20285;-79
2023/07/24 00:28:09;;;;;;;7.93;6.68;;;24.00;52.10;;;;;;4975751;28;20225;-79
2023/07/24 00:30:39;;;;;;;7.60;6.35;;;24.00;52.10;;;;;;4974918;28;20301;-79
2023/07/24 00:33:06;;;;;;;7.38;6.40;;;24.00;52.10;;;;;;4974710;28;20253;-79
2023/07/24 00:35:33;;;;;;;7.50;6.70;;;24.00;52.10;;;;;;4974626;28;20204;-79
2023/07/24 00:38:00;;;;;;;7.40;6.40;;;24.00;52.20;;;;;;4974780;28;20198;-79
2023/07/24 00:40:27;;;;;;;8.25;6.80;;;24.00;52.20;;;;;;4974518;28;20218;-79
2023/07/24 00:42:56;;;;;;;8.02;6.68;;;24.00;52.30;;;;;;4958918;28;20198;-79
2023/07/24 00:45:23;;;;;;;7.55;6.75;;;24.00;52.30;;;;;;4974861;28;20214;-79
2023/07/24 00:47:51;;;;;;;8.23;6.18;;;24.00;52.30;;;;;;4958784;28;20202;-79
2023/07/24 00:50:18;;;;;;;8.20;6.43;;;24.00;52.30;;;;;;4958469;28;20226;-79
2023/07/24 00:52:45;;;;;;;8.40;6.70;;;24.00;52.40;;;;;;4978897;28;20206;-80
2023/07/24 00:55:13;;;;;;;8.07;6.47;;;24.00;52.40;;;;;;4979818;28;20186;-79
2023/07/24 00:57:42;;;;;;;7.90;6.75;;;24.00;52.40;;;;;;4996088;28;20201;-79
2023/07/24 01:00:12;;;;;;;7.63;6.53;;;24.00;52.40;;;;;;4979205;28;20240;-79
2023/07/24 01:02:40;;;;;;;7.45;6.35;;;23.90;52.30;;;;;;4995641;28;20204;-79
2023/07/24 01:05:07;;;;;;;7.78;6.45;;;23.90;52.40;;;;;;4979028;28;20218;-79
2023/07/24 01:07:36;;;;;;;8.25;6.25;;;23.90;52.50;;;;;;4978639;28;20245;-79
2023/07/24 01:10:06;;;;;;;7.70;6.57;;;23.90;52.50;;;;;;4979493;28;20700;-79
2023/07/24 01:12:37;;;;;;;7.25;6.47;;;23.90;52.60;;;;;;4978962;28;20229;-79
2023/07/24 01:15:08;;;;;;;7.70;6.47;;;23.80;52.50;;;;;;4995638;28;20198;-79
2023/07/24 01:17:37;;;;;;;7.88;6.32;;;23.80;52.40;;;;;;4978019;28;20208;-79
2023/07/24 01:20:05;;;;;;;7.75;6.03;;;23.90;52.50;;;;;;4977864;28;20222;-79
2023/07/24 01:22:37;;;;;;;7.50;6.55;;;23.90;52.70;;;;;;4962237;28;20708;-79
2023/07/24 01:25:07;;;;;;;7.68;6.35;;;23.90;52.70;;;;;;4978204;28;20206;-79
2023/07/24 01:27:37;;;;;;;7.13;6.28;;;23.80;52.70;;;;;;4979402;28;20174;-79
2023/07/24 01:30:04;;;;;;;6.68;5.97;;;23.80;52.70;;;;;;4977813;28;20226;-79
2023/07/24 01:32:32;;;;;;;8.38;6.75;;;23.80;52.70;;;;;;4978122;28;20276;-79
2023/07/24 01:34:59;;;;;;;7.53;6.30;;;23.80;52.70;;;;;;4977725;28;20221;-78
2023/07/24 01:37:26;;;;;;;7.93;6.53;;;23.70;52.60;;;;;;4962124;28;20207;-78
2023/07/24 01:39:53;;;;;;;7.53;6.70;;;23.80;52.70;;;;;;4977912;28;20202;-79
2023/07/24 01:42:20;;;;;;;8.57;6.85;;;23.80;52.70;;;;;;4977955;28;20209;-78
2023/07/24 01:44:53;;;;;;;7.63;6.43;;;23.80;52.70;;;;;;4993620;28;20303;-79
2023/07/24 01:47:20;;;;;;;8.30;6.45;;;23.70;52.70;;;;;;4977781;28;20190;-79
2023/07/24 01:49:49;;;;;;;8.02;6.13;;;23.70;52.70;;;;;;4977752;28;20208;-79
2023/07/24 01:52:16;;;;;;;8.95;6.63;;;23.70;52.50;;;;;;4962053;28;20645;-79
2023/07/24 01:54:43;;;;;;;8.13;7.03;;;23.70;52.50;;;;;;4977581;28;20209;-79
2023/07/24 01:57:10;;;;;;;7.97;7.00;;;23.70;52.50;;;;;;4979486;28;20225;-79
2023/07/24 01:59:37;;;;;;;8.20;6.65;;;23.70;52.70;;;;;;4961616;28;20206;-79
2023/07/24 02:02:06;;;;;;;7.63;6.40;;;23.70;52.70;;;;;;4961243;28;20222;-79
2023/07/24 02:04:33;;;;;;;8.02;6.85;;;23.70;52.60;;;;;;4977973;28;20587;-79
2023/07/24 02:07:00;;;;;;;7.85;7.03;;;23.70;52.70;;;;;;4993275;28;20305;-79
2023/07/24 02:09:28;;;;;;;8.38;6.32;;;23.70;52.60;;;;;;4993478;28;20202;-78
2023/07/24 02:11:55;;;;;;;7.97;6.43;;;23.70;52.70;;;;;;4977119;28;20221;-78
2023/07/24 02:14:22;;;;;;;7.85;6.40;;;23.60;52.50;;;;;;4977008;28;20202;-79
2023/07/24 02:16:49;;;;;;;8.35;6.50;;;23.70;52.60;;;;;;4977217;28;20210;-79
2023/07/24 02:19:17;;;;;;;7.65;6.68;;;23.60;52.60;;;;;;4977105;28;20202;-79
2023/07/24 02:21:45;;;;;;;7.07;6.07;;;23.60;52.50;;;;;;4977197;28;20221;-79
2023/07/24 02:24:11;;;;;;;8.68;6.85;;;23.60;52.60;;;;;;4993506;28;20194;-79
2023/07/24 02:26:39;;;;;;;7.10;6.13;;;23.60;52.50;;;;;;4977535;28;20681;-79
2023/07/24 02:29:06;;;;;;;7.28;6.03;;;23.50;52.50;;;;;;4961815;28;20198;-79
2023/07/24 02:31:33;;;;;;;7.47;5.90;;;23.50;52.50;;;;;;4977702;28;20312;-79
2023/07/24 02:34:01;;;;;;;7.20;6.25;;;23.50;52.60;;;;;;4961751;28;20202;-79
2023/07/24 02:36:29;;;;;;;7.40;6.13;;;23.50;52.70;;;;;;4961339;28;20640;-79
2023/07/24 02:38:57;;;;;;;7.13;6.43;;;23.50;52.50;;;;;;4977626;28;20229;-79
2023/07/24 02:41:23;;;;;;;7.80;6.20;;;23.50;52.70;;;;;;4994343;28;20218;-79
2023/07/24 02:43:51;;;;;;;7.32;6.32;;;23.50;52.40;;;;;;4993960;28;20202;-79
2023/07/24 02:46:19;;;;;;;7.60;6.53;;;23.40;52.40;;;;;;5013968;28;20241;-79
2023/07/24 02:48:46;;;;;;;7.40;6.60;;;23.40;52.40;;;;;;4999901;28;20195;-79
2023/07/24 02:51:13;;;;;;;7.57;6.28;;;23.40;52.40;;;;;;4983277;28;20226;-79
2023/07/24 02:53:42;;;;;;;7.32;6.18;;;23.40;52.40;;;;;;4976662;28;20198;-79
2023/07/24 02:56:09;;;;;;;7.30;6.50;;;23.40;52.50;;;;;;4976200;28;20186;-79
2023/07/24 02:58:36;;;;;;;8.13;6.60;;;23.40;52.50;;;;;;4976565;28;20208;-79
2023/07/24 03:01:06;;;;;;;7.57;6.13;;;23.40;52.40;;;;;;4976243;28;20273;-79
2023/07/24 03:03:33;;;;;;;8.05;6.60;;;23.40;52.40;;;;;;4992216;28;20206;-79
2023/07/24 03:06:00;;;;;;;8.38;6.28;;;23.40;52.50;;;;;;4975884;28;20218;-79
2023/07/24 03:08:28;;;;;;;6.82;6.13;;;23.40;52.50;;;;;;4992461;28;20202;-79
2023/07/24 03:10:56;;;;;;;8.18;6.45;;;23.40;52.50;;;;;;4975581;28;20265;-78
2023/07/24 03:13:23;;;;;;;8.18;6.63;;;23.40;52.60;;;;;;4991579;28;20198;-79
2023/07/24 03:15:53;;;;;;;10.27;6.70;;;23.40;52.50;;;;;;4992680;28;20556;-79
2023/07/24 03:18:21;;;;;;;7.95;6.63;;;23.40;52.40;;;;;;4975651;28;20197;-79
2023/07/24 03:20:47;;;;;;;8.23;6.35;;;23.40;52.40;;;;;;4975538;28;20277;-79
2023/07/24 03:23:15;;;;;;;7.50;6.07;;;23.40;52.40;;;;;;4975441;28;20194;-79
2023/07/24 03:25:42;;;;;;;9.13;7.03;;;23.40;52.30;;;;;;4975432;28;20693;-79
2023/07/24 03:28:10;;;;;;;7.63;6.20;;;23.50;52.50;;;;;;4975361;28;20197;-79
2023/07/24 03:30:38;;;;;;;7.35;6.30;;;23.40;52.20;;;;;;4974947;28;20222;-79
2023/07/24 03:33:06;;;;;;;6.72;5.88;;;23.50;52.20;;;;;;4991517;28;20602;-79
2023/07/24 03:35:34;;;;;;;9.13;6.88;;;23.50;52.00;;;;;;4959956;28;20202;-79
2023/07/24 03:38:01;;;;;;;9.00;6.55;;;23.60;51.80;;;;;;4975474;28;20687;-79
2023/07/24 03:40:28;;;;;;;8.10;6.57;;;23.60;51.80;;;;;;4975551;28;20653;-79
2023/07/24 03:42:56;;;;;;;8.00;6.30;;;23.60;51.60;;;;;;4975664;28;20198;-79
2023/07/24 03:45:25;;;;;;;8.07;6.63;;;23.60;51.50;;;;;;4975735;28;20297;-79
2023/07/24 03:47:52;;;;;;;8.18;6.20;;;23.60;51.50;;;;;;4975431;28;20202;-79
2023/07/24 03:50:19;;;;;;;8.65;6.63;;;23.60;51.40;;;;;;4975231;28;20589;-79
2023/07/24 03:52:46;;;;;;;8.60;6.60;;;23.60;51.40;;;;;;4975179;28;20210;-79
2023/07/24 03:55:13;;;;;;;8.05;6.68;;;23.60;51.50;;;;;;4975446;28;20197;-79
2023/07/24 03:57:40;;;;;;;6.85;6.13;;;23.60;51.50;;;;;;4975069;28;20194;-79
2023/07/24 04:00:08;;;;;;;7.35;6.30;;;23.50;51.50;;;;;;4975309;28;20221;-79
2023/07/24 04:02:43;;;;;;;9.23;7.28;;;23.60;51.80;;;;;;4977018;28;20218;-79
2023/07/24 04:05:10;;;;;;;8.23;6.55;;;23.50;51.80;;;;;;4975369;28;20309;-79
2023/07/24 04:07:38;;;;;;;7.90;6.43;;;23.50;51.80;;;;;;4977074;28;20226;-79
2023/07/24 04:10:06;;;;;;;7.05;5.97;;;23.50;51.80;;;;;;4978166;28;20252;-79
2023/07/24 04:12:33;;;;;;;6.95;6.22;;;23.50;52.00;;;;;;4976646;28;20269;-79
2023/07/24 04:15:00;;;;;;;9.10;6.60;;;23.50;51.80;;;;;;4975692;28;20252;-79
2023/07/24 04:17:27;;;;;;;8.60;6.82;;;23.50;51.90;;;;;;4974963;28;20198;-79
2023/07/24 04:19:56;;;;;;;7.38;6.50;;;23.50;51.80;;;;;;4991504;28;20198;-79
2023/07/24 04:22:23;;;;;;;9.13;6.50;;;23.50;52.00;;;;;;4975501;28;20218;-79
2023/07/24 04:24:50;;;;;;;7.22;5.82;;;23.50;52.00;;;;;;4975400;28;20201;-79
2023/07/24 04:27:18;;;;;;;8.05;6.53;;;23.40;51.90;;;;;;4975311;28;20246;-79
2023/07/24 04:29:45;;;;;;;7.47;6.63;;;23.50;52.00;;;;;;4991790;28;20237;-79
2023/07/24 04:32:11;;;;;;;9.35;6.50;;;23.50;52.00;;;;;;4975727;28;20194;-79
2023/07/24 04:34:38;;;;;;;7.82;6.63;;;23.50;52.10;;;;;;4982569;28;20189;-79
2023/07/24 04:37:07;;;;;;;6.70;6.03;;;23.50;52.20;;;;;;4981772;28;20206;-79
2023/07/24 04:39:34;;;;;;;7.50;6.22;;;23.50;52.20;;;;;;4975517;28;20198;-78
2023/07/24 04:42:01;;;;;;;8.45;7.05;;;23.50;52.60;;;;;;4974870;28;20218;-79
2023/07/24 04:44:28;;;;;;;7.80;6.40;;;23.30;53.60;;;;;;4974547;28;20209;-79
2023/07/24 04:46:56;;;;;;;10.02;6.53;;;23.10;54.30;;;;;;4975071;28;20249;-78
2023/07/24 04:49:23;;;;;;;9.27;6.60;;;23.00;54.70;;;;;;4990601;28;20673;-78
2023/07/24 04:51:50;;;;;;;8.65;6.57;;;22.90;55.00;;;;;;4974206;28;20341;-78
2023/07/24 04:54:19;;;;;;;7.20;6.35;;;22.80;55.70;;;;;;4990127;28;20236;-78
2023/07/24 04:56:45;;;;;;;9.23;6.95;;;22.60;56.20;;;;;;4973877;28;20202;-78
2023/07/24 04:59:13;;;;;;;9.32;7.15;;;22.60;56.30;;;;;;4974027;28;20680;-78
2023/07/24 05:01:40;;;;;;;9.38;7.00;;;22.50;56.40;;;;;;4974086;28;20218;-78
2023/07/24 05:04:07;;;;;;;9.70;7.32;;;22.40;56.50;;;;;;4974138;28;20272;-78
2023/07/24 05:06:35;;;;;;;9.98;7.53;;;22.40;56.50;;;;;;4973858;28;20685;-78
2023/07/24 05:09:02;;;;;;;9.00;7.40;;;22.40;57.10;;;;;;4973996;28;20206;-78
2023/07/24 05:11:31;;;;;;;9.20;7.13;;;22.40;57.20;;;;;;4958208;28;20229;-78
2023/07/24 05:13:58;;;;;;;7.43;6.57;;;22.40;57.10;;;;;;4973912;28;20198;-78
2023/07/24 05:16:25;;;;;;;8.32;6.93;;;22.30;57.30;;;;;;4973783;28;20202;-78
2023/07/24 05:18:52;;;;;;;9.40;7.13;;;22.30;57.50;;;;;;4990919;28;20245;-78
2023/07/24 05:21:19;;;;;;;9.90;7.15;;;22.20;57.70;;;;;;4990699;28;20591;-78
2023/07/24 05:23:46;;;;;;;8.75;7.40;;;22.20;57.90;;;;;;4973804;28;20202;-77
2023/07/24 05:26:13;;;;;;;8.52;7.22;;;22.30;57.90;;;;;;4974987;28;20221;-78
2023/07/24 05:28:41;;;;;;;10.05;7.38;;;22.30;58.10;;;;;;4990620;28;20661;-78
2023/07/24 05:31:08;;;;;;;8.23;6.90;;;22.20;58.70;;;;;;4973824;28;20226;-78
2023/07/24 05:33:36;;;;;;;8.93;6.72;;;22.20;58.60;;;;;;4974576;28;20614;-78
2023/07/24 05:36:04;;;;;;;10.27;7.68;;;22.20;59.00;;;;;;4974606;28;20257;-78
2023/07/24 05:38:31;;;;;;;8.77;7.03;;;22.20;59.20;;;;;;4994742;28;20236;-78
2023/07/24 05:40:58;;;;;;;8.82;6.75;;;22.20;59.10;;;;;;4994695;28;20229;-79
2023/07/24 05:43:25;;;;;;;9.57;6.97;;;22.20;59.60;;;;;;4977423;28;20202;-79
2023/07/24 05:45:53;;;;;;;10.18;7.25;;;22.30;59.50;;;;;;4977289;28;20213;-78
2023/07/24 05:48:20;;;;;;;9.48;6.88;;;22.40;58.70;;;;;;4976708;28;20221;-78
2023/07/24 05:50:47;;;;;;;9.25;7.07;;;22.50;57.90;;;;;;4961597;28;20225;-78
2023/07/24 05:53:15;;;;;;;7.72;6.72;;;22.60;57.00;;;;;;4976584;28;20198;-78
2023/07/24 05:55:42;;;;;;;9.50;6.50;;;22.70;56.90;;;;;;4976923;28;20205;-78
2023/07/24 06:01:02;;;;;;;8.20;6.65;;;22.80;56.50;;;;;;4960972;29;20755;-80
2023/07/24 06:03:29;;;;;;;8.00;6.60;;;22.90;56.10;;;;;;4959815;29;20694;-80
2023/07/24 06:05:57;;;;;;;8.38;6.72;;;23.00;55.90;;;;;;4959868;29;20302;-80
2023/07/24 06:08:24;;;;;;;7.95;6.80;;;23.00;55.70;;;;;;4959961;29;20223;-82
2023/07/24 06:10:51;;;;;;;7.95;6.63;;;23.10;55.30;;;;;;4959870;28;20218;-82
2023/07/24 06:13:18;;;;;;;9.23;7.20;;;23.20;55.40;;;;;;4961544;28;20224;-82
2023/07/24 06:15:47;;;;;;;6.90;6.03;;;23.30;55.60;;;;;;4959656;29;20190;-82
2023/07/24 06:18:15;;;;;;;8.27;6.47;;;23.40;54.70;;;;;;4959877;28;20190;-82
2023/07/24 06:20:42;;;;;;;8.07;6.82;;;23.40;54.40;;;;;;4957714;28;20227;-82
2023/07/24 06:23:10;;;;;;;7.68;6.32;;;23.50;54.30;;;;;;4957543;28;20234;-82
2023/07/24 06:25:36;;;;;;;9.02;6.70;;;23.50;54.00;;;;;;4957879;29;20276;-82
2023/07/24 06:28:03;;;;;;;8.20;6.78;;;23.70;54.00;;;;;;4957697;29;20226;-82
2023/07/24 06:30:30;;;;;;;9.13;6.82;;;23.70;53.70;;;;;;4958929;29;20210;-82
2023/07/24 06:32:57;;;;;;;9.00;6.68;;;23.80;53.60;;;;;;4957204;28;20195;-81
2023/07/24 06:35:26;;;;;;;8.65;6.65;;;23.80;53.60;;;;;;4957224;29;20238;-81
2023/07/24 06:37:53;;;;;;;9.23;6.60;;;23.80;53.50;;;;;;4957796;28;20289;-81
2023/07/24 06:40:20;;;;;;;9.48;6.70;;;23.80;53.30;;;;;;4943446;29;20697;-81
2023/07/24 06:42:47;;;;;;;9.93;7.03;;;23.80;53.20;;;;;;4962022;28;20214;-81
2023/07/24 06:45:14;;;;;;;8.38;7.35;;;23.80;53.20;;;;;;4958412;29;20673;-81
2023/07/24 06:47:41;;;;;;;9.82;6.40;;;23.80;53.30;;;;;;4957683;28;20219;-81
2023/07/24 06:50:09;;;;;;;9.98;7.07;;;23.90;53.30;;;;;;4941053;29;20318;-81
2023/07/24 06:52:37;;;;;;;8.40;6.65;;;23.90;53.30;;;;;;4957879;28;20269;-81
2023/07/24 06:55:05;;;;;;;9.68;7.10;;;23.90;53.30;;;;;;4957915;29;20205;-82
2023/07/24 06:57:32;;;;;;;10.57;6.90;;;23.90;53.30;;;;;;4957224;29;20222;-82
2023/07/24 06:59:58;;;;;;;8.93;6.88;;;23.90;53.10;;;;;;4957776;29;20298;-82
2023/07/24 07:02:25;;;;;;;7.88;6.65;;;23.90;53.10;;;;;;4958589;28;20218;-82
2023/07/24 07:04:53;;;;;;;6.78;6.00;;;24.00;53.10;;;;;;4958333;29;20199;-82
2023/07/24 07:07:20;;;;;;;9.68;6.95;;;24.00;53.10;;;;;;4958316;28;20219;-82
2023/07/24 07:09:49;;;;;;;9.38;6.82;;;24.00;53.40;;;;;;4942097;29;20190;-82
2023/07/24 07:12:16;;;;;;;8.10;6.60;;;24.00;54.20;;;;;;4958187;28;20257;-82
2023/07/24 07:14:43;;;;;;;8.43;6.57;;;24.00;54.30;;;;;;4957525;29;20199;-82
2023/07/24 07:17:10;;;;;;;8.75;6.68;;;24.00;54.50;;;;;;4957719;28;20203;-82
2023/07/24 07:19:38;;;;;;;8.80;6.80;;;24.00;54.50;;;;;;4958550;29;20202;-82
2023/07/24 07:22:05;;;;;;;8.13;6.90;;;24.00;54.40;;;;;;4925631;29;20326;-82
2023/07/24 07:24:33;;;;;;;9.15;7.07;;;24.00;54.40;;;;;;4956871;28;20202;-82
2023/07/24 07:27:01;;;;;;;8.68;6.30;;;24.10;54.30;;;;;;4925091;29;20302;-82
2023/07/24 07:29:28;;;;;;;7.85;6.07;;;24.00;54.10;;;;;;4940425;29;20217;-82
2023/07/24 07:31:55;;;;;;;7.97;6.32;;;24.10;54.10;;;;;;4956706;29;20231;-82
2023/07/24 07:34:22;;;;;;;8.13;6.75;;;24.10;54.00;;;;;;4956527;29;20195;-82
2023/07/24 07:36:49;;;;;;;8.43;6.85;;;24.10;54.00;;;;;;4958315;29;20199;-82
2023/07/24 07:39:17;;;;;;;8.95;7.10;;;24.10;53.70;;;;;;4959723;29;20206;-82
2023/07/24 07:41:44;;;;;;;7.90;6.60;;;24.20;53.70;;;;;;4958750;29;20281;-82
2023/07/24 07:44:12;;;;;;;7.50;6.47;;;24.10;53.50;;;;;;4959679;28;20589;-82
2023/07/24 07:46:39;;;;;;;9.40;7.07;;;24.10;53.50;;;;;;4957872;28;20258;-82
2023/07/24 07:49:07;;;;;;;7.28;6.47;;;24.10;53.50;;;;;;4942817;29;20209;-82
2023/07/24 07:51:34;;;;;;;7.30;6.35;;;24.20;53.60;;;;;;4959240;28;20219;-82
2023/07/24 07:54:01;;;;;;;7.95;6.63;;;24.20;53.50;;;;;;4958413;29;20265;-82
2023/07/24 07:56:28;;;;;;;7.50;6.22;;;24.10;53.40;;;;;;4959392;29;20580;-82
2023/07/24 07:58:55;;;;;;;8.13;6.07;;;24.20;53.40;;;;;;4958076;28;20225;-82
2023/07/24 08:01:24;;;;;;;8.73;6.93;;;24.20;53.30;;;;;;4956280;28;20214;-82
2023/07/24 08:03:51;;;;;;;8.65;6.50;;;24.20;53.30;;;;;;4956682;28;20233;-82
2023/07/24 08:06:18;;;;;;;8.38;6.72;;;24.30;53.30;;;;;;4925011;29;20234;-82
2023/07/24 08:08:45;;;;;;;7.93;6.68;;;24.20;53.10;;;;;;4925444;29;20229;-82
2023/07/24 08:11:12;;;;;;;7.47;6.60;;;24.30;53.20;;;;;;4957885;28;20229;-82
2023/07/24 08:13:38;;;;;;;11.13;6.65;;;24.20;53.20;;;;;;4957768;28;20344;-82
2023/07/24 08:16:17;;;;;;;8.50;6.68;;;24.30;53.30;;;;;;4958107;28;20202;-82
2023/07/24 08:18:46;;;;;;;8.32;6.75;;;24.30;53.40;;;;;;4941713;29;20622;-82
2023/07/24 08:21:13;;;;;;;7.28;6.30;;;24.20;53.30;;;;;;4957402;28;20317;-82
2023/07/24 08:23:40;;;;;;;7.57;6.65;;;24.20;53.50;;;;;;4957355;28;20202;-82
2023/07/24 08:26:08;;;;;;;8.35;7.10;;;24.20;53.60;;;;;;4957836;28;20207;-82
2023/07/24 08:28:35;;;;;;;7.55;6.40;;;24.20;53.90;;;;;;4956379;28;20281;-82
2023/07/24 08:31:02;;;;;;;7.55;6.15;;;24.20;54.10;;;;;;4956928;28;20313;-82
2023/07/24 08:33:29;;;;;;;7.70;6.90;;;24.20;54.10;;;;;;4956005;29;20198;-82
2023/07/24 08:36:04;;;;;;;8.02;6.45;;;24.20;53.50;;;;;;4955960;29;20207;-82
2023/07/24 08:38:32;;;;;;;7.90;6.35;;;24.20;53.50;;;;;;4955764;29;20222;-82
2023/07/24 08:41:03;;;;;;;7.80;6.22;;;24.20;54.10;;;;;;4956268;29;20220;-82
2023/07/24 08:43:31;;;;;;;8.75;7.15;;;24.20;53.80;;;;;;4956243;29;20209;-82
2023/07/24 08:45:58;;;;;;;8.82;6.72;;;24.20;53.70;;;;;;4957580;28;20207;-82
2023/07/24 08:48:25;;;;;;;7.30;6.53;;;24.20;53.70;;;;;;4960323;29;20241;-82
2023/07/24 08:50:52;;;;;;;7.95;6.13;;;24.20;53.70;;;;;;4957433;28;20242;-82
2023/07/24 08:53:21;;;;;;;8.35;6.40;;;24.20;53.80;;;;;;4957165;28;20678;-82
2023/07/24 08:55:49;;;;;;;7.63;6.50;;;24.20;53.70;;;;;;4957051;29;20596;-82
2023/07/24 08:58:16;;;;;;;8.18;6.35;;;24.20;53.90;;;;;;4955326;29;20662;-82
2023/07/24 09:00:43;;;;;;;7.07;5.97;;;24.20;53.70;;;;;;4923135;29;20215;-82
2023/07/24 09:03:11;;;;;;;6.65;5.95;;;24.20;53.70;;;;;;4955668;28;20670;-82
2023/07/24 09:05:38;;;;;;;9.15;6.78;;;24.30;54.00;;;;;;4954859;29;20210;-82
2023/07/24 09:08:05;;;;;;;7.78;6.20;;;24.30;54.00;;;;;;4955596;29;20222;-82
2023/07/24 09:10:34;;;;;;;7.65;6.38;;;24.30;53.70;;;;;;4955423;29;20234;-82
2023/07/24 09:13:03;;;;;;;7.00;5.97;;;24.40;54.00;;;;;;4958508;28;20237;-82
2023/07/24 09:15:30;;;;;;;7.70;6.55;;;24.40;53.80;;;;;;4959986;29;20721;-82
2023/07/24 09:17:57;;;;;;;7.38;6.35;;;24.50;53.80;;;;;;4962533;28;20654;-82
2023/07/24 09:20:26;;;;;;;7.32;6.30;;;24.50;53.80;;;;;;4962316;29;20218;-82
2023/07/24 09:22:54;;;;;;;7.43;6.05;;;24.50;53.80;;;;;;4962940;29;20198;-82
2023/07/24 09:25:31;;;;;;;7.30;6.18;;;24.60;53.80;;;;;;4962465;28;20724;-82
2023/07/24 09:28:00;;;;;;;7.15;5.75;;;24.60;53.80;;;;;;4946333;29;20222;-82
2023/07/24 09:30:27;;;;;;;6.65;5.82;;;24.60;53.40;;;;;;4947634;29;20219;-82
2023/07/24 09:32:54;;;;;;;8.30;6.47;;;24.70;53.50;;;;;;4962407;28;20202;-82
2023/07/24 09:35:25;;;;;;;6.72;5.45;;;24.70;53.70;;;;;;4962768;29;20273;-82
2023/07/24 09:37:53;;;;;;;6.30;5.50;;;24.70;53.50;;;;;;4962215;29;20191;-81
2023/07/24 09:40:20;;;;;;;7.45;5.93;;;24.70;53.50;;;;;;4961855;29;20285;-81
2023/07/24 09:42:47;;;;;;;7.82;6.22;;;24.70;53.50;;;;;;4962500;28;20214;-81
2023/07/24 09:45:16;;;;;;;7.72;6.13;;;24.70;53.50;;;;;;4963133;28;20214;-81
2023/07/24 09:47:43;;;;;;;7.85;5.75;;;24.70;53.40;;;;;;4963935;28;20277;-81
2023/07/24 09:50:11;;;;;;;6.72;5.53;;;24.70;53.60;;;;;;4963716;29;20228;-82
2023/07/24 09:52:38;;;;;;;6.88;6.10;;;24.70;53.50;;;;;;4962035;28;20206;-82
2023/07/24 09:55:09;;;;;;;7.15;6.07;;;24.70;53.60;;;;;;4962322;28;20199;-82
2023/07/24 09:57:36;;;;;;;6.28;5.65;;;24.70;53.70;;;;;;4958534;29;20210;-82
2023/07/24 10:00:04;;;;;;;6.18;5.45;;;24.70;53.80;;;;;;4960844;28;20222;-82
2023/07/24 10:02:33;;;;;;;6.97;5.80;;;24.70;53.80;;;;;;4963507;28;20195;-82
2023/07/24 10:05:00;;;;;;;6.40;5.80;;;24.70;53.90;;;;;;4962103;28;20242;-82
2023/07/24 10:07:48;;;;;;;7.22;6.13;;;24.70;53.90;;;;;;4949521;29;20242;-82
2023/07/24 10:10:15;;;;;;;6.60;5.72;;;24.70;54.00;;;;;;4963160;29;20242;-82
2023/07/24 10:12:43;;;;;;;8.45;5.57;;;24.70;54.00;;;;;;4947186;29;20314;-82
2023/07/24 10:15:10;;;;;;;6.38;5.72;;;24.70;54.00;;;;;;4962259;29;20191;-82
2023/07/24 10:17:40;;;;;;;7.25;5.40;;;24.70;54.30;;;;;;4947074;29;20206;-82
2023/07/24 10:20:08;;;;;;;6.50;5.53;;;24.60;54.20;;;;;;4961917;28;20223;-82
2023/07/24 10:22:37;;;;;;;7.32;5.50;;;24.60;54.40;;;;;;4962436;28;20213;-82
2023/07/24 10:25:05;;;;;;;6.82;5.75;;;24.70;54.50;;;;;;4962031;29;20233;-82
2023/07/24 10:27:33;;;;;;;8.10;5.85;;;24.60;54.50;;;;;;4962528;28;20206;-82
2023/07/24 10:30:00;;;;;;;6.25;5.57;;;24.60;54.40;;;;;;4961555;29;20194;-82
2023/07/24 10:32:28;;;;;;;7.18;5.95;;;24.60;54.70;;;;;;4960894;28;20206;-82
2023/07/24 10:35:00;;;;;;;6.72;5.65;;;24.60;55.00;;;;;;4960868;29;20210;-82
2023/07/24 10:37:35;;;;;;;6.13;5.40;;;24.60;55.00;;;;;;4961437;28;20222;-82
2023/07/24 10:40:02;;;;;;;5.95;5.35;;;24.60;55.00;;;;;;4960599;28;20203;-82
2023/07/24 10:42:30;;;;;;;5.90;5.30;;;24.50;54.80;;;;;;4959964;28;20226;-82
2023/07/24 10:45:06;;;;;;;6.70;5.30;;;24.50;54.90;;;;;;4958806;29;20285;-82
2023/07/24 10:47:33;;;;;;;7.15;4.88;;;24.50;55.00;;;;;;4957995;29;20761;-82
2023/07/24 10:50:02;;;;;;;5.93;5.32;;;24.50;55.10;;;;;;4959354;29;20576;-82
2023/07/24 10:52:32;;;;;;;6.05;5.07;;;24.50;55.00;;;;;;4960830;28;20198;-82
2023/07/24 10:55:01;;;;;;;6.10;5.50;;;24.50;55.10;;;;;;4959182;29;20246;-82
2023/07/24 10:57:29;;;;;;;7.72;5.25;;;24.50;55.20;;;;;;4958779;29;20251;-83
2023/07/24 10:59:56;;;;;;;5.90;5.30;;;24.50;55.40;;;;;;4961166;28;20258;-83
2023/07/24 11:02:24;;;;;;;5.93;5.32;;;24.50;55.30;;;;;;4959954;28;20203;-83
2023/07/24 11:04:51;;;;;;;5.93;5.22;;;24.50;55.80;;;;;;4959712;29;20210;-83
2023/07/24 11:07:19;;;;;;;6.57;5.28;;;24.40;55.20;;;;;;4959254;28;20195;-83
2023/07/24 11:09:47;;;;;;;6.07;4.82;;;24.50;55.30;;;;;;4958356;29;20608;-83
2023/07/24 11:12:15;;;;;;;6.13;5.15;;;24.40;55.40;;;;;;4958029;29;20233;-83
2023/07/24 11:14:49;;;;;;;6.47;5.10;;;24.40;55.50;;;;;;4942253;29;20623;-83
2023/07/24 11:17:17;;;;;;;7.80;5.38;;;24.50;55.60;;;;;;4957470;29;20218;-83
2023/07/24 11:19:44;;;;;;;6.18;5.40;;;24.50;55.30;;;;;;4957034;29;20241;-83
2023/07/24 11:22:11;;;;;;;5.85;5.05;;;24.50;55.30;;;;;;4957020;28;20190;-83
2023/07/24 11:24:47;;;;;;;6.03;5.20;;;24.50;55.30;;;;;;4940963;29;20206;-83
2023/07/24 11:27:14;;;;;;;5.25;4.75;;;24.50;55.30;;;;;;4956378;29;20202;-83
2023/07/24 11:29:42;;;;;;;6.80;4.90;;;24.50;55.20;;;;;;4959016;28;20627;-83
2023/07/24 11:32:09;;;;;;;6.07;4.72;;;24.50;55.40;;;;;;4960030;28;20657;-83
2023/07/24 11:34:37;;;;;;;5.40;4.70;;;24.50;55.30;;;;;;4960300;28;20238;-82
2023/07/24 11:37:04;;;;;;;6.25;5.07;;;24.60;55.30;;;;;;4960705;28;20749;-82
2023/07/24 11:39:31;;;;;;;6.47;5.43;;;24.60;55.30;;;;;;4960245;29;20199;-82
2023/07/24 11:42:01;;;;;;;5.25;4.75;;;24.70;55.40;;;;;;4929642;29;20262;-82
2023/07/24 11:44:29;;;;;;;7.13;5.38;;;24.70;55.40;;;;;;4960536;29;20274;-82
2023/07/24 11:47:03;;;;;;;5.18;4.60;;;24.70;55.20;;;;;;4958910;29;20210;-82
2023/07/24 11:49:31;;;;;;;5.97;4.93;;;24.80;55.10;;;;;;4957600;28;20250;-82
2023/07/24 11:52:03;;;;;;;5.97;4.80;;;24.80;55.20;;;;;;4943397;29;20285;-82
2023/07/24 11:54:30;;;;;;;5.80;4.72;;;24.90;54.90;;;;;;4955604;28;20643;-82
2023/07/24 11:56:57;;;;;;;6.35;4.72;;;25.00;55.10;;;;;;4941182;29;20210;-82
2023/07/24 11:59:27;;;;;;;6.10;5.25;;;25.10;54.80;;;;;;5056312;22;20243;-77
2023/07/24 12:01:54;;;;;;;5.75;4.50;;;25.10;54.60;;;;;;4996712;28;20224;-77
2023/07/24 12:04:21;;;;;;;8.05;5.00;;;25.10;54.70;;;;;;4996575;28;20197;-77
2023/07/24 12:06:50;;;;;;;5.55;4.88;;;25.20;54.80;;;;;;4996563;28;20315;-77
2023/07/24 12:09:16;;;;;;;6.43;4.53;;;25.10;55.10;;;;;;4996627;28;20227;-77
2023/07/24 12:11:45;;;;;;;5.72;4.82;;;25.10;54.90;;;;;;4996818;28;20221;-77
2023/07/24 12:14:14;;;;;;;5.25;4.75;;;25.10;54.90;;;;;;5014771;28;20643;-78
2023/07/24 12:16:43;;;;;;;5.25;4.75;;;25.10;55.00;;;;;;4996929;28;20200;-78
2023/07/24 12:19:10;;;;;;;5.70;4.68;;;25.10;54.90;;;;;;4997396;28;20192;-78
2023/07/24 12:21:37;;;;;;;5.38;4.45;;;25.10;54.90;;;;;;4997008;28;20228;-77
2023/07/24 12:24:04;;;;;;;5.13;4.63;;;25.10;54.80;;;;;;4996563;28;20255;-78
2023/07/24 12:26:31;;;;;;;6.05;4.65;;;25.20;55.00;;;;;;5014039;28;20239;-78
2023/07/24 12:29:00;;;;;;;5.35;4.63;;;25.20;54.70;;;;;;4996218;28;20595;-78
2023/07/24 12:31:27;;;;;;;6.18;4.57;;;25.10;54.70;;;;;;4996752;28;20733;-78
2023/07/24 12:33:56;;;;;;;5.65;4.50;;;25.20;54.70;;;;;;4996298;28;20208;-78
2023/07/24 12:36:23;;;;;;;6.65;5.00;;;25.20;54.50;;;;;;5014015;28;20567;-78
2023/07/24 12:38:51;;;;;;;6.30;5.10;;;25.20;54.40;;;;;;4996501;28;20251;-78
2023/07/24 12:41:18;;;;;;;5.70;4.75;;;25.20;54.40;;;;;;4996492;28;20217;-78
2023/07/24 12:44:07;;;;;;;5.85;5.00;;;25.30;54.70;;;;;;5014136;28;20184;-78
2023/07/24 12:46:34;;;;;;;5.90;5.30;;;25.20;55.70;;;;;;4980153;28;20207;-78
2023/07/24 12:49:02;;;;;;;5.80;4.85;;;25.10;56.40;;;;;;5000458;28;20212;-78
2023/07/24 12:51:29;;;;;;;7.03;5.20;;;25.10;57.30;;;;;;5000734;28;20216;-78